Terminal Aerodrome Forecast
Issued by NWS

Home | Current Version | Previous Version | Text Only | Print | Product List | Glossary On
Versions: 1 2 3 4 5 6 7 8 9 10 11 12 13 14 15 16 17 18 19 20 21 22 23 24 25 26 27
961
FTUS45 KABQ 200623 AAA
TAFGUP
TAF AMD
KGUP 200623Z 2006/2106 23015G23KT P6SM -SHSN BKN011 OVC020
      TEMPO 2006/2009 1SM -SN BR BKN009
     FM201300 23015G23KT P6SM VCSH BKN025 OVC040
     FM201800 23018G25KT 6SM -SHSN BKN015 OVC035
     FM210000 23013G18KT 6SM -SHSN BKN015 OVC035=

USA.gov is the U.S. government's official web portal to all federal, state and local government web resources and services.